AIRPORT ID: 7S0

DATE: 2017-12-19 ZULU TIME: 21.35 LOCAL TIME: 14.35


METAR K7S0 192135Z AUTO 00000KT 10SM 01/M01 A2977

ALTIMETER: A2977 Q1008

DENSITY ALT: 2300 Ft

WIND DIRECT: 10

WIND SPEED: 0 Gust

WIND CONDITIONS:

VISIBILTY: 10SM 9999M

TEMPERATURE: 33 F 1 C

DEW POINT: 31 F -1 C

HUMID: 92%

LCL: Above 5,000 feet

RADIO CHECK: 1

ADVISARIES: 0

GREETINGS: 0

CONVERSATIONS: 0